sensor_id;sensor_type;location;lat;lon;timestamp;P1;durP1;ratioP1;P2;durP2;ratioP2
14526;SDS011;7350;51.208;4.238;2023-04-29T00:01:18;7.10;;;6.40;;
14526;SDS011;7350;51.208;4.238;2023-04-29T00:03:46;7.47;;;6.22;;
14526;SDS011;7350;51.208;4.238;2023-04-29T00:06:13;8.13;;;6.72;;
14526;SDS011;7350;51.208;4.238;2023-04-29T00:08:40;7.13;;;6.43;;
14526;SDS011;7350;51.208;4.238;2023-04-29T00:11:08;8.43;;;6.65;;
14526;SDS011;7350;51.208;4.238;2023-04-29T00:13:35;7.63;;;6.82;;
14526;SDS011;7350;51.208;4.238;2023-04-29T00:16:03;9.27;;;7.53;;
14526;SDS011;7350;51.208;4.238;2023-04-29T00:18:31;8.68;;;7.05;;
14526;SDS011;7350;51.208;4.238;2023-04-29T00:20:59;8.32;;;6.93;;
14526;SDS011;7350;51.208;4.238;2023-04-29T00:23:26;8.10;;;6.78;;
14526;SDS011;7350;51.208;4.238;2023-04-29T00:25:53;9.18;;;7.07;;
14526;SDS011;7350;51.208;4.238;2023-04-29T00:28:20;8.00;;;6.85;;
14526;SDS011;7350;51.208;4.238;2023-04-29T00:30:47;8.68;;;6.93;;
14526;SDS011;7350;51.208;4.238;2023-04-29T00:33:14;7.10;;;6.22;;
14526;SDS011;7350;51.208;4.238;2023-04-29T00:35:41;7.88;;;6.65;;
14526;SDS011;7350;51.208;4.238;2023-04-29T00:38:09;8.60;;;7.70;;
14526;SDS011;7350;51.208;4.238;2023-04-29T00:40:36;9.05;;;7.22;;
14526;SDS011;7350;51.208;4.238;2023-04-29T00:43:03;9.07;;;7.72;;
14526;SDS011;7350;51.208;4.238;2023-04-29T00:45:30;9.00;;;7.40;;
14526;SDS011;7350;51.208;4.238;2023-04-29T00:47:58;8.55;;;7.45;;
14526;SDS011;7350;51.208;4.238;2023-04-29T00:50:25;8.30;;;7.32;;
14526;SDS011;7350;51.208;4.238;2023-04-29T00:52:52;8.63;;;7.00;;
14526;SDS011;7350;51.208;4.238;2023-04-29T00:55:20;8.50;;;7.55;;
14526;SDS011;7350;51.208;4.238;2023-04-29T00:57:50;9.38;;;7.30;;
14526;SDS011;7350;51.208;4.238;2023-04-29T01:00:18;8.52;;;7.55;;
14526;SDS011;7350;51.208;4.238;2023-04-29T01:02:45;8.13;;;6.88;;
14526;SDS011;7350;51.208;4.238;2023-04-29T01:05:13;8.00;;;6.90;;
14526;SDS011;7350;51.208;4.238;2023-04-29T01:07:42;8.05;;;7.07;;
14526;SDS011;7350;51.208;4.238;2023-04-29T01:10:19;8.50;;;7.30;;
14526;SDS011;7350;51.208;4.238;2023-04-29T01:12:53;8.73;;;7.78;;
14526;SDS011;7350;51.208;4.238;2023-04-29T01:15:29;8.65;;;6.80;;
14526;SDS011;7350;51.208;4.238;2023-04-29T01:18:03;8.23;;;7.40;;
14526;SDS011;7350;51.208;4.238;2023-04-29T01:20:36;8.02;;;7.13;;
14526;SDS011;7350;51.208;4.238;2023-04-29T01:23:03;7.70;;;6.70;;
14526;SDS011;7350;51.208;4.238;2023-04-29T01:25:32;8.10;;;6.85;;
14526;SDS011;7350;51.208;4.238;2023-04-29T01:28:01;9.25;;;7.00;;
14526;SDS011;7350;51.208;4.238;2023-04-29T01:30:38;8.57;;;6.47;;
14526;SDS011;7350;51.208;4.238;2023-04-29T01:33:13;9.45;;;6.95;;
14526;SDS011;7350;51.208;4.238;2023-04-29T01:35:50;6.72;;;6.03;;
14526;SDS011;7350;51.208;4.238;2023-04-29T01:38:29;8.30;;;6.85;;
14526;SDS011;7350;51.208;4.238;2023-04-29T01:41:08;7.25;;;6.55;;
14526;SDS011;7350;51.208;4.238;2023-04-29T01:43:39;6.85;;;6.25;;
14526;SDS011;7350;51.208;4.238;2023-04-29T01:46:07;7.10;;;6.35;;
14526;SDS011;7350;51.208;4.238;2023-04-29T01:48:36;7.38;;;6.43;;
14526;SDS011;7350;51.208;4.238;2023-04-29T01:51:03;7.25;;;6.38;;
14526;SDS011;7350;51.208;4.238;2023-04-29T01:53:31;7.75;;;6.88;;
14526;SDS011;7350;51.208;4.238;2023-04-29T01:55:58;8.45;;;7.07;;
14526;SDS011;7350;51.208;4.238;2023-04-29T01:58:26;6.88;;;6.18;;
14526;SDS011;7350;51.208;4.238;2023-04-29T02:00:53;7.85;;;6.25;;
14526;SDS011;7350;51.208;4.238;2023-04-29T02:03:21;7.85;;;6.30;;
14526;SDS011;7350;51.208;4.238;2023-04-29T02:05:48;6.78;;;6.13;;
14526;SDS011;7350;51.208;4.238;2023-04-29T02:08:15;6.75;;;6.05;;
14526;SDS011;7350;51.208;4.238;2023-04-29T02:10:50;6.57;;;5.90;;
14526;SDS011;7350;51.208;4.238;2023-04-29T02:13:18;6.97;;;5.90;;
14526;SDS011;7350;51.208;4.238;2023-04-29T02:15:46;5.95;;;5.38;;
14526;SDS011;7350;51.208;4.238;2023-04-29T02:18:13;6.53;;;5.93;;
14526;SDS011;7350;51.208;4.238;2023-04-29T02:20:40;6.60;;;5.90;;
14526;SDS011;7350;51.208;4.238;2023-04-29T02:23:08;7.28;;;5.70;;
14526;SDS011;7350;51.208;4.238;2023-04-29T02:25:35;6.47;;;5.88;;
14526;SDS011;7350;51.208;4.238;2023-04-29T02:28:02;6.28;;;5.68;;
14526;SDS011;7350;51.208;4.238;2023-04-29T02:30:29;6.32;;;5.72;;
14526;SDS011;7350;51.208;4.238;2023-04-29T02:32:57;6.47;;;5.78;;
14526;SDS011;7350;51.208;4.238;2023-04-29T02:35:24;5.50;;;5.00;;
14526;SDS011;7350;51.208;4.238;2023-04-29T02:37:53;6.25;;;5.60;;
14526;SDS011;7350;51.208;4.238;2023-04-29T02:40:20;5.95;;;5.35;;
14526;SDS011;7350;51.208;4.238;2023-04-29T02:42:49;6.57;;;5.90;;
14526;SDS011;7350;51.208;4.238;2023-04-29T02:45:16;6.95;;;6.25;;
14526;SDS011;7350;51.208;4.238;2023-04-29T02:47:43;6.57;;;5.90;;
14526;SDS011;7350;51.208;4.238;2023-04-29T02:50:11;6.47;;;5.88;;
14526;SDS011;7350;51.208;4.238;2023-04-29T02:52:38;6.57;;;5.97;;
14526;SDS011;7350;51.208;4.238;2023-04-29T02:55:06;6.65;;;5.97;;
14526;SDS011;7350;51.208;4.238;2023-04-29T02:57:34;7.10;;;6.40;;
14526;SDS011;7350;51.208;4.238;2023-04-29T03:00:01;6.50;;;5.30;;
14526;SDS011;7350;51.208;4.238;2023-04-29T03:02:29;7.65;;;5.47;;
14526;SDS011;7350;51.208;4.238;2023-04-29T03:04:56;7.28;;;6.57;;
14526;SDS011;7350;51.208;4.238;2023-04-29T03:07:24;7.03;;;6.05;;
14526;SDS011;7350;51.208;4.238;2023-04-29T03:09:52;7.20;;;6.10;;
14526;SDS011;7350;51.208;4.238;2023-04-29T03:12:19;7.03;;;5.50;;
14526;SDS011;7350;51.208;4.238;2023-04-29T03:14:46;7.03;;;6.20;;
14526;SDS011;7350;51.208;4.238;2023-04-29T03:17:13;6.97;;;6.28;;
14526;SDS011;7350;51.208;4.238;2023-04-29T03:19:40;7.10;;;6.13;;
14526;SDS011;7350;51.208;4.238;2023-04-29T03:22:06;7.00;;;6.22;;
14526;SDS011;7350;51.208;4.238;2023-04-29T03:24:37;6.20;;;5.60;;
14526;SDS011;7350;51.208;4.238;2023-04-29T03:27:04;5.85;;;5.20;;
14526;SDS011;7350;51.208;4.238;2023-04-29T03:29:31;6.45;;;5.85;;
14526;SDS011;7350;51.208;4.238;2023-04-29T03:31:58;6.13;;;5.53;;
14526;SDS011;7350;51.208;4.238;2023-04-29T03:34:25;5.57;;;4.93;;
14526;SDS011;7350;51.208;4.238;2023-04-29T03:36:51;6.30;;;5.50;;
14526;SDS011;7350;51.208;4.238;2023-04-29T03:39:18;6.25;;;5.45;;
14526;SDS011;7350;51.208;4.238;2023-04-29T03:41:47;5.97;;;5.05;;
14526;SDS011;7350;51.208;4.238;2023-04-29T03:44:14;8.32;;;5.65;;
14526;SDS011;7350;51.208;4.238;2023-04-29T03:46:41;6.25;;;5.45;;
14526;SDS011;7350;51.208;4.238;2023-04-29T03:49:08;6.13;;;5.28;;
14526;SDS011;7350;51.208;4.238;2023-04-29T03:51:35;6.57;;;5.80;;
14526;SDS011;7350;51.208;4.238;2023-04-29T03:54:02;6.43;;;5.75;;
14526;SDS011;7350;51.208;4.238;2023-04-29T03:56:29;5.93;;;5.00;;
14526;SDS011;7350;51.208;4.238;2023-04-29T03:58:58;5.97;;;4.95;;
14526;SDS011;7350;51.208;4.238;2023-04-29T04:01:25;6.18;;;5.57;;
14526;SDS011;7350;51.208;4.238;2023-04-29T04:03:52;6.15;;;5.35;;
14526;SDS011;7350;51.208;4.238;2023-04-29T04:06:19;7.30;;;5.18;;
14526;SDS011;7350;51.208;4.238;2023-04-29T04:08:46;5.80;;;5.03;;
14526;SDS011;7350;51.208;4.238;2023-04-29T04:11:13;6.05;;;4.70;;
14526;SDS011;7350;51.208;4.238;2023-04-29T04:13:40;6.10;;;4.72;;
14526;SDS011;7350;51.208;4.238;2023-04-29T04:16:08;5.68;;;5.05;;
14526;SDS011;7350;51.208;4.238;2023-04-29T04:18:36;5.15;;;4.65;;
14526;SDS011;7350;51.208;4.238;2023-04-29T04:21:06;5.28;;;4.68;;
14526;SDS011;7350;51.208;4.238;2023-04-29T04:23:33;5.82;;;4.57;;
14526;SDS011;7350;51.208;4.238;2023-04-29T04:26:00;8.25;;;4.80;;
14526;SDS011;7350;51.208;4.238;2023-04-29T04:28:27;4.78;;;4.20;;
14526;SDS011;7350;51.208;4.238;2023-04-29T04:30:54;7.70;;;4.43;;
14526;SDS011;7350;51.208;4.238;2023-04-29T04:33:23;5.15;;;4.35;;
14526;SDS011;7350;51.208;4.238;2023-04-29T04:35:50;5.40;;;4.88;;
14526;SDS011;7350;51.208;4.238;2023-04-29T04:38:17;5.30;;;4.68;;
14526;SDS011;7350;51.208;4.238;2023-04-29T04:40:44;6.10;;;4.60;;
14526;SDS011;7350;51.208;4.238;2023-04-29T04:43:11;6.45;;;4.45;;
14526;SDS011;7350;51.208;4.238;2023-04-29T04:45:37;4.75;;;3.78;;
14526;SDS011;7350;51.208;4.238;2023-04-29T04:48:05;3.72;;;3.40;;
14526;SDS011;7350;51.208;4.238;2023-04-29T04:50:33;4.22;;;3.38;;
14526;SDS011;7350;51.208;4.238;2023-04-29T04:53:00;4.32;;;3.10;;
14526;SDS011;7350;51.208;4.238;2023-04-29T04:55:27;4.13;;;3.55;;
14526;SDS011;7350;51.208;4.238;2023-04-29T04:57:55;5.28;;;3.35;;
14526;SDS011;7350;51.208;4.238;2023-04-29T05:00:22;3.95;;;3.20;;
14526;SDS011;7350;51.208;4.238;2023-04-29T05:02:49;3.47;;;2.67;;
14526;SDS011;7350;51.208;4.238;2023-04-29T05:05:16;5.20;;;3.20;;
14526;SDS011;7350;51.208;4.238;2023-04-29T05:07:45;4.43;;;3.00;;
14526;SDS011;7350;51.208;4.238;2023-04-29T05:10:12;3.78;;;2.70;;
14526;SDS011;7350;51.208;4.238;2023-04-29T05:12:39;4.38;;;2.88;;
14526;SDS011;7350;51.208;4.238;2023-04-29T05:15:06;4.72;;;2.90;;
14526;SDS011;7350;51.208;4.238;2023-04-29T05:17:33;4.95;;;2.80;;
14526;SDS011;7350;51.208;4.238;2023-04-29T05:20:00;4.55;;;3.10;;
14526;SDS011;7350;51.208;4.238;2023-04-29T05:22:28;4.97;;;2.65;;
14526;SDS011;7350;51.208;4.238;2023-04-29T05:24:56;3.45;;;2.90;;
14526;SDS011;7350;51.208;4.238;2023-04-29T05:27:27;4.47;;;2.60;;
14526;SDS011;7350;51.208;4.238;2023-04-29T05:29:54;3.33;;;2.53;;
14526;SDS011;7350;51.208;4.238;2023-04-29T05:32:21;3.80;;;2.92;;
14526;SDS011;7350;51.208;4.238;2023-04-29T05:34:48;3.22;;;2.38;;
14526;SDS011;7350;51.208;4.238;2023-04-29T05:37:15;3.47;;;2.50;;
14526;SDS011;7350;51.208;4.238;2023-04-29T05:39:42;4.53;;;2.92;;
14526;SDS011;7350;51.208;4.238;2023-04-29T05:42:10;4.25;;;2.72;;
14526;SDS011;7350;51.208;4.238;2023-04-29T05:44:37;4.57;;;3.10;;
14526;SDS011;7350;51.208;4.238;2023-04-29T05:47:05;3.45;;;3.00;;
14526;SDS011;7350;51.208;4.238;2023-04-29T05:49:32;2.70;;;2.42;;
14526;SDS011;7350;51.208;4.238;2023-04-29T05:51:58;4.22;;;2.88;;
14526;SDS011;7350;51.208;4.238;2023-04-29T05:54:30;3.63;;;2.90;;
14526;SDS011;7350;51.208;4.238;2023-04-29T05:56:57;2.50;;;2.30;;
14526;SDS011;7350;51.208;4.238;2023-04-29T05:59:27;2.95;;;2.50;;
14526;SDS011;7350;51.208;4.238;2023-04-29T06:01:56;3.10;;;2.83;;
14526;SDS011;7350;51.208;4.238;2023-04-29T06:04:23;4.15;;;2.92;;
14526;SDS011;7350;51.208;4.238;2023-04-29T06:06:50;3.88;;;2.80;;
14526;SDS011;7350;51.208;4.238;2023-04-29T06:09:17;3.70;;;3.22;;
14526;SDS011;7350;51.208;4.238;2023-04-29T06:11:45;5.38;;;3.70;;
14526;SDS011;7350;51.208;4.238;2023-04-29T06:14:12;3.63;;;3.13;;
14526;SDS011;7350;51.208;4.238;2023-04-29T06:16:40;8.55;;;3.83;;
14526;SDS011;7350;51.208;4.238;2023-04-29T06:19:07;5.72;;;3.97;;
14526;SDS011;7350;51.208;4.238;2023-04-29T06:21:34;12.68;;;4.70;;
14526;SDS011;7350;51.208;4.238;2023-04-29T06:24:01;10.80;;;3.83;;
14526;SDS011;7350;51.208;4.238;2023-04-29T06:26:28;6.32;;;3.78;;
14526;SDS011;7350;51.208;4.238;2023-04-29T06:28:55;4.97;;;3.90;;
14526;SDS011;7350;51.208;4.238;2023-04-29T06:31:22;6.43;;;4.47;;
14526;SDS011;7350;51.208;4.238;2023-04-29T06:33:51;8.50;;;4.68;;
14526;SDS011;7350;51.208;4.238;2023-04-29T06:36:17;7.95;;;4.40;;
14526;SDS011;7350;51.208;4.238;2023-04-29T06:38:44;6.97;;;4.63;;
14526;SDS011;7350;51.208;4.238;2023-04-29T06:41:11;7.57;;;4.50;;
14526;SDS011;7350;51.208;4.238;2023-04-29T06:43:38;6.45;;;4.70;;
14526;SDS011;7350;51.208;4.238;2023-04-29T06:46:07;7.22;;;4.57;;
14526;SDS011;7350;51.208;4.238;2023-04-29T06:48:34;6.97;;;4.35;;
14526;SDS011;7350;51.208;4.238;2023-04-29T06:51:03;5.40;;;4.13;;
14526;SDS011;7350;51.208;4.238;2023-04-29T06:53:30;7.53;;;4.47;;
14526;SDS011;7350;51.208;4.238;2023-04-29T06:55:56;5.85;;;4.28;;
14526;SDS011;7350;51.208;4.238;2023-04-29T06:58:23;4.25;;;3.85;;
14526;SDS011;7350;51.208;4.238;2023-04-29T07:00:50;6.20;;;4.47;;
14526;SDS011;7350;51.208;4.238;2023-04-29T07:03:17;7.18;;;4.75;;
14526;SDS011;7350;51.208;4.238;2023-04-29T07:05:44;8.13;;;4.72;;
14526;SDS011;7350;51.208;4.238;2023-04-29T07:08:13;6.65;;;4.97;;
14526;SDS011;7350;51.208;4.238;2023-04-29T07:10:40;6.38;;;5.00;;
14526;SDS011;7350;51.208;4.238;2023-04-29T07:13:07;6.32;;;4.70;;
14526;SDS011;7350;51.208;4.238;2023-04-29T07:15:34;7.55;;;5.25;;
14526;SDS011;7350;51.208;4.238;2023-04-29T07:18:02;6.10;;;4.90;;
14526;SDS011;7350;51.208;4.238;2023-04-29T07:20:30;6.10;;;5.28;;
14526;SDS011;7350;51.208;4.238;2023-04-29T07:22:57;9.32;;;6.10;;
14526;SDS011;7350;51.208;4.238;2023-04-29T07:25:26;8.30;;;6.43;;
14526;SDS011;7350;51.208;4.238;2023-04-29T07:27:53;8.32;;;5.97;;
14526;SDS011;7350;51.208;4.238;2023-04-29T07:30:21;7.07;;;6.30;;
14526;SDS011;7350;51.208;4.238;2023-04-29T07:32:49;10.00;;;6.93;;
14526;SDS011;7350;51.208;4.238;2023-04-29T07:35:16;9.00;;;6.88;;
14526;SDS011;7350;51.208;4.238;2023-04-29T07:37:43;8.82;;;5.82;;
14526;SDS011;7350;51.208;4.238;2023-04-29T07:40:10;9.57;;;6.63;;
14526;SDS011;7350;51.208;4.238;2023-04-29T07:42:39;7.63;;;6.35;;
14526;SDS011;7350;51.208;4.238;2023-04-29T07:45:07;9.10;;;6.28;;
14526;SDS011;7350;51.208;4.238;2023-04-29T07:47:34;11.55;;;6.20;;
14526;SDS011;7350;51.208;4.238;2023-04-29T07:50:01;7.80;;;6.38;;
14526;SDS011;7350;51.208;4.238;2023-04-29T07:52:29;7.80;;;5.47;;
14526;SDS011;7350;51.208;4.238;2023-04-29T07:54:56;8.10;;;5.57;;
14526;SDS011;7350;51.208;4.238;2023-04-29T07:57:23;6.90;;;5.40;;
14526;SDS011;7350;51.208;4.238;2023-04-29T07:59:52;6.60;;;5.72;;
14526;SDS011;7350;51.208;4.238;2023-04-29T08:02:19;7.15;;;5.68;;
14526;SDS011;7350;51.208;4.238;2023-04-29T08:04:47;6.22;;;5.22;;
14526;SDS011;7350;51.208;4.238;2023-04-29T08:07:14;10.15;;;5.60;;
14526;SDS011;7350;51.208;4.238;2023-04-29T08:09:41;6.13;;;5.10;;
14526;SDS011;7350;51.208;4.238;2023-04-29T08:12:08;7.75;;;5.72;;
14526;SDS011;7350;51.208;4.238;2023-04-29T08:14:35;8.60;;;5.55;;
14526;SDS011;7350;51.208;4.238;2023-04-29T08:17:04;8.82;;;5.20;;
14526;SDS011;7350;51.208;4.238;2023-04-29T08:19:32;7.50;;;4.63;;
14526;SDS011;7350;51.208;4.238;2023-04-29T08:21:59;7.07;;;5.05;;
14526;SDS011;7350;51.208;4.238;2023-04-29T08:24:28;7.03;;;5.70;;
14526;SDS011;7350;51.208;4.238;2023-04-29T08:26:55;9.65;;;4.97;;
14526;SDS011;7350;51.208;4.238;2023-04-29T08:29:23;8.07;;;4.65;;
14526;SDS011;7350;51.208;4.238;2023-04-29T08:31:49;7.95;;;5.47;;
14526;SDS011;7350;51.208;4.238;2023-04-29T08:34:18;6.22;;;5.15;;
14526;SDS011;7350;51.208;4.238;2023-04-29T08:36:45;9.55;;;5.10;;
14526;SDS011;7350;51.208;4.238;2023-04-29T08:39:12;6.70;;;5.05;;
14526;SDS011;7350;51.208;4.238;2023-04-29T08:41:39;5.90;;;4.63;;
14526;SDS011;7350;51.208;4.238;2023-04-29T08:44:08;6.50;;;5.35;;
14526;SDS011;7350;51.208;4.238;2023-04-29T08:46:35;5.57;;;4.93;;
14526;SDS011;7350;51.208;4.238;2023-04-29T08:49:02;6.28;;;4.60;;
14526;SDS011;7350;51.208;4.238;2023-04-29T08:51:30;5.70;;;4.43;;
14526;SDS011;7350;51.208;4.238;2023-04-29T08:53:58;5.13;;;4.53;;
14526;SDS011;7350;51.208;4.238;2023-04-29T08:56:25;5.28;;;4.72;;
14526;SDS011;7350;51.208;4.238;2023-04-29T08:58:53;6.18;;;4.63;;
14526;SDS011;7350;51.208;4.238;2023-04-29T09:01:23;7.93;;;4.63;;
14526;SDS011;7350;51.208;4.238;2023-04-29T09:03:53;7.97;;;4.30;;
14526;SDS011;7350;51.208;4.238;2023-04-29T09:06:24;5.00;;;4.40;;
14526;SDS011;7350;51.208;4.238;2023-04-29T09:08:52;7.97;;;4.80;;
14526;SDS011;7350;51.208;4.238;2023-04-29T09:11:19;5.13;;;4.10;;
14526;SDS011;7350;51.208;4.238;2023-04-29T09:13:47;5.63;;;4.55;;
14526;SDS011;7350;51.208;4.238;2023-04-29T09:16:13;6.22;;;4.57;;
14526;SDS011;7350;51.208;4.238;2023-04-29T09:18:44;4.93;;;4.35;;
14526;SDS011;7350;51.208;4.238;2023-04-29T09:21:13;8.30;;;5.20;;
14526;SDS011;7350;51.208;4.238;2023-04-29T09:23:41;6.10;;;4.70;;
14526;SDS011;7350;51.208;4.238;2023-04-29T09:26:09;7.22;;;4.97;;
14526;SDS011;7350;51.208;4.238;2023-04-29T09:28:36;5.30;;;4.80;;
14526;SDS011;7350;51.208;4.238;2023-04-29T09:31:05;7.95;;;4.78;;
14526;SDS011;7350;51.208;4.238;2023-04-29T09:36:25;11.05;;;5.10;;
14526;SDS011;7350;51.208;4.238;2023-04-29T09:39:03;8.75;;;5.10;;
14526;SDS011;7350;51.208;4.238;2023-04-29T09:41:36;8.38;;;5.05;;
14526;SDS011;7350;51.208;4.238;2023-04-29T09:44:05;9.55;;;5.53;;
14526;SDS011;7350;51.208;4.238;2023-04-29T09:46:32;6.00;;;5.20;;
14526;SDS011;7350;51.208;4.238;2023-04-29T09:49:01;8.52;;;5.28;;
14526;SDS011;7350;51.208;4.238;2023-04-29T09:51:28;9.98;;;5.32;;
14526;SDS011;7350;51.208;4.238;2023-04-29T09:53:58;8.45;;;4.88;;
14526;SDS011;7350;51.208;4.238;2023-04-29T09:56:29;7.97;;;5.05;;
14526;SDS011;7350;51.208;4.238;2023-04-29T09:59:16;8.32;;;5.40;;
14526;SDS011;7350;51.208;4.238;2023-04-29T10:01:43;6.53;;;5.00;;
14526;SDS011;7350;51.208;4.238;2023-04-29T10:04:16;9.73;;;5.13;;
14526;SDS011;7350;51.208;4.238;2023-04-29T10:06:44;7.95;;;4.72;;
14526;SDS011;7350;51.208;4.238;2023-04-29T10:09:14;11.75;;;5.22;;
14526;SDS011;7350;51.208;4.238;2023-04-29T10:11:42;7.97;;;5.13;;
14526;SDS011;7350;51.208;4.238;2023-04-29T10:14:12;7.32;;;5.00;;
14526;SDS011;7350;51.208;4.238;2023-04-29T10:16:44;7.00;;;4.95;;
14526;SDS011;7350;51.208;4.238;2023-04-29T10:19:14;9.10;;;4.80;;
14526;SDS011;7350;51.208;4.238;2023-04-29T10:21:50;6.85;;;4.75;;
14526;SDS011;7350;51.208;4.238;2023-04-29T10:24:20;7.38;;;4.80;;
14526;SDS011;7350;51.208;4.238;2023-04-29T10:26:48;7.95;;;4.57;;
14526;SDS011;7350;51.208;4.238;2023-04-29T10:29:18;5.82;;;4.50;;
14526;SDS011;7350;51.208;4.238;2023-04-29T10:31:48;7.47;;;4.10;;
14526;SDS011;7350;51.208;4.238;2023-04-29T10:34:16;8.05;;;4.90;;
14526;SDS011;7350;51.208;4.238;2023-04-29T10:36:44;5.68;;;4.55;;
14526;SDS011;7350;51.208;4.238;2023-04-29T10:39:15;7.93;;;4.50;;
14526;SDS011;7350;51.208;4.238;2023-04-29T10:41:51;9.27;;;5.55;;
14526;SDS011;7350;51.208;4.238;2023-04-29T10:44:20;13.40;;;5.75;;
14526;SDS011;7350;51.208;4.238;2023-04-29T10:46:48;8.13;;;4.40;;
14526;SDS011;7350;51.208;4.238;2023-04-29T10:49:15;9.77;;;4.85;;
14526;SDS011;7350;51.208;4.238;2023-04-29T10:51:42;4.68;;;4.20;;
14526;SDS011;7350;51.208;4.238;2023-04-29T10:54:11;6.95;;;4.60;;
14526;SDS011;7350;51.208;4.238;2023-04-29T10:56:43;9.73;;;4.50;;
14526;SDS011;7350;51.208;4.238;2023-04-29T10:59:13;8.30;;;4.55;;
14526;SDS011;7350;51.208;4.238;2023-04-29T11:01:43;5.97;;;4.63;;
14526;SDS011;7350;51.208;4.238;2023-04-29T11:04:12;5.63;;;5.07;;
14526;SDS011;7350;51.208;4.238;2023-04-29T11:06:40;8.43;;;4.57;;
14526;SDS011;7350;51.208;4.238;2023-04-29T11:09:10;6.57;;;4.15;;
14526;SDS011;7350;51.208;4.238;2023-04-29T11:11:42;7.35;;;4.55;;
14526;SDS011;7350;51.208;4.238;2023-04-29T11:14:24;4.93;;;3.85;;
14526;SDS011;7350;51.208;4.238;2023-04-29T11:16:55;5.82;;;3.97;;
14526;SDS011;7350;51.208;4.238;2023-04-29T11:19:24;8.88;;;4.25;;
14526;SDS011;7350;51.208;4.238;2023-04-29T11:22:11;6.50;;;4.22;;
14526;SDS011;7350;51.208;4.238;2023-04-29T11:24:49;4.93;;;3.85;;
14526;SDS011;7350;51.208;4.238;2023-04-29T11:27:18;6.93;;;4.00;;
14526;SDS011;7350;51.208;4.238;2023-04-29T11:29:49;6.57;;;4.22;;
14526;SDS011;7350;51.208;4.238;2023-04-29T11:32:21;4.25;;;3.22;;
14526;SDS011;7350;51.208;4.238;2023-04-29T11:34:48;3.83;;;3.42;;
14526;SDS011;7350;51.208;4.238;2023-04-29T11:37:19;3.90;;;3.50;;
14526;SDS011;7350;51.208;4.238;2023-04-29T11:39:47;4.75;;;3.50;;
14526;SDS011;7350;51.208;4.238;2023-04-29T11:42:18;6.78;;;3.90;;
14526;SDS011;7350;51.208;4.238;2023-04-29T11:44:45;6.10;;;3.70;;
14526;SDS011;7350;51.208;4.238;2023-04-29T11:47:12;4.10;;;3.53;;
14526;SDS011;7350;51.208;4.238;2023-04-29T11:49:41;5.93;;;3.40;;
14526;SDS011;7350;51.208;4.238;2023-04-29T11:52:08;4.32;;;3.53;;
14526;SDS011;7350;51.208;4.238;2023-04-29T11:54:35;4.28;;;3.15;;
14526;SDS011;7350;51.208;4.238;2023-04-29T11:57:02;3.92;;;3.20;;
14526;SDS011;7350;51.208;4.238;2023-04-29T11:59:30;3.38;;;3.08;;
14526;SDS011;7350;51.208;4.238;2023-04-29T12:01:57;3.88;;;3.50;;
14526;SDS011;7350;51.208;4.238;2023-04-29T12:04:25;5.50;;;3.40;;
14526;SDS011;7350;51.208;4.238;2023-04-29T12:06:55;3.35;;;3.00;;
14526;SDS011;7350;51.208;4.238;2023-04-29T12:09:22;3.72;;;3.40;;
14526;SDS011;7350;51.208;4.238;2023-04-29T12:11:49;5.10;;;3.40;;
14526;SDS011;7350;51.208;4.238;2023-04-29T12:14:16;3.60;;;2.95;;
14526;SDS011;7350;51.208;4.238;2023-04-29T12:16:44;3.47;;;3.17;;
14526;SDS011;7350;51.208;4.238;2023-04-29T12:19:12;3.53;;;2.95;;
14526;SDS011;7350;51.208;4.238;2023-04-29T12:21:46;3.20;;;2.90;;
14526;SDS011;7350;51.208;4.238;2023-04-29T12:24:15;4.28;;;3.30;;
14526;SDS011;7350;51.208;4.238;2023-04-29T12:26:43;3.20;;;2.90;;
14526;SDS011;7350;51.208;4.238;2023-04-29T12:29:11;3.28;;;2.78;;
14526;SDS011;7350;51.208;4.238;2023-04-29T12:31:39;5.32;;;2.95;;
14526;SDS011;7350;51.208;4.238;2023-04-29T12:34:07;3.60;;;2.70;;
14526;SDS011;7350;51.208;4.238;2023-04-29T12:36:34;3.30;;;2.88;;
14526;SDS011;7350;51.208;4.238;2023-04-29T12:39:04;3.00;;;2.67;;
14526;SDS011;7350;51.208;4.238;2023-04-29T12:41:38;3.67;;;2.92;;
14526;SDS011;7350;51.208;4.238;2023-04-29T12:44:06;3.17;;;2.70;;
14526;SDS011;7350;51.208;4.238;2023-04-29T12:46:35;3.15;;;2.85;;
14526;SDS011;7350;51.208;4.238;2023-04-29T12:49:02;4.68;;;3.28;;
14526;SDS011;7350;51.208;4.238;2023-04-29T12:51:30;4.35;;;2.97;;
14526;SDS011;7350;51.208;4.238;2023-04-29T12:53:57;5.78;;;3.03;;
14526;SDS011;7350;51.208;4.238;2023-04-29T12:56:25;3.20;;;2.80;;
14526;SDS011;7350;51.208;4.238;2023-04-29T12:58:53;3.67;;;3.10;;
14526;SDS011;7350;51.208;4.238;2023-04-29T13:01:20;4.22;;;2.80;;
14526;SDS011;7350;51.208;4.238;2023-04-29T13:03:47;4.32;;;2.85;;
14526;SDS011;7350;51.208;4.238;2023-04-29T13:06:15;3.55;;;3.08;;
14526;SDS011;7350;51.208;4.238;2023-04-29T13:08:42;3.10;;;2.80;;
14526;SDS011;7350;51.208;4.238;2023-04-29T13:11:09;3.30;;;3.00;;
14526;SDS011;7350;51.208;4.238;2023-04-29T13:13:37;3.10;;;2.65;;
14526;SDS011;7350;51.208;4.238;2023-04-29T13:16:06;3.30;;;2.85;;
14526;SDS011;7350;51.208;4.238;2023-04-29T13:18:33;6.60;;;2.92;;
14526;SDS011;7350;51.208;4.238;2023-04-29T13:21:01;3.90;;;2.90;;
14526;SDS011;7350;51.208;4.238;2023-04-29T13:23:28;3.63;;;2.50;;
14526;SDS011;7350;51.208;4.238;2023-04-29T13:25:55;3.92;;;2.80;;
14526;SDS011;7350;51.208;4.238;2023-04-29T13:28:22;2.70;;;2.30;;
14526;SDS011;7350;51.208;4.238;2023-04-29T13:30:49;3.70;;;3.03;;
14526;SDS011;7350;51.208;4.238;2023-04-29T13:33:17;4.05;;;3.10;;
14526;SDS011;7350;51.208;4.238;2023-04-29T13:35:44;3.95;;;2.92;;
14526;SDS011;7350;51.208;4.238;2023-04-29T13:38:13;3.35;;;3.05;;
14526;SDS011;7350;51.208;4.238;2023-04-29T13:40:41;3.80;;;2.70;;
14526;SDS011;7350;51.208;4.238;2023-04-29T13:43:08;3.28;;;2.92;;
14526;SDS011;7350;51.208;4.238;2023-04-29T13:45:35;3.45;;;2.97;;
14526;SDS011;7350;51.208;4.238;2023-04-29T13:48:02;3.78;;;3.05;;
14526;SDS011;7350;51.208;4.238;2023-04-29T13:50:31;3.22;;;2.90;;
14526;SDS011;7350;51.208;4.238;2023-04-29T13:52:58;3.15;;;2.80;;
14526;SDS011;7350;51.208;4.238;2023-04-29T13:55:25;4.00;;;2.85;;
14526;SDS011;7350;51.208;4.238;2023-04-29T13:57:52;2.83;;;2.30;;
14526;SDS011;7350;51.208;4.238;2023-04-29T14:00:20;2.95;;;2.63;;
14526;SDS011;7350;51.208;4.238;2023-04-29T14:02:47;3.40;;;3.00;;
14526;SDS011;7350;51.208;4.238;2023-04-29T14:05:13;3.28;;;2.42;;
14526;SDS011;7350;51.208;4.238;2023-04-29T14:07:42;3.90;;;2.70;;
14526;SDS011;7350;51.208;4.238;2023-04-29T14:10:09;3.65;;;2.65;;
14526;SDS011;7350;51.208;4.238;2023-04-29T14:12:36;2.97;;;2.67;;
14526;SDS011;7350;51.208;4.238;2023-04-29T14:15:03;3.72;;;2.65;;
14526;SDS011;7350;51.208;4.238;2023-04-29T14:17:31;3.90;;;2.78;;
14526;SDS011;7350;51.208;4.238;2023-04-29T14:19:58;3.33;;;2.55;;
14526;SDS011;7350;51.208;4.238;2023-04-29T14:22:25;2.97;;;2.55;;
14526;SDS011;7350;51.208;4.238;2023-04-29T14:24:53;3.15;;;2.70;;
14526;SDS011;7350;51.208;4.238;2023-04-29T14:27:20;3.78;;;3.38;;
14526;SDS011;7350;51.208;4.238;2023-04-29T14:29:47;3.08;;;2.78;;
14526;SDS011;7350;51.208;4.238;2023-04-29T14:32:14;3.50;;;2.80;;
14526;SDS011;7350;51.208;4.238;2023-04-29T14:34:41;2.65;;;2.40;;
14526;SDS011;7350;51.208;4.238;2023-04-29T14:37:07;3.20;;;2.90;;
14526;SDS011;7350;51.208;4.238;2023-04-29T14:39:35;3.90;;;2.65;;
14526;SDS011;7350;51.208;4.238;2023-04-29T14:42:03;7.40;;;3.50;;
14526;SDS011;7350;51.208;4.238;2023-04-29T14:44:30;10.95;;;3.80;;
14526;SDS011;7350;51.208;4.238;2023-04-29T14:46:57;6.63;;;3.15;;
14526;SDS011;7350;51.208;4.238;2023-04-29T14:49:24;5.85;;;3.08;;
14526;SDS011;7350;51.208;4.238;2023-04-29T14:51:51;10.93;;;3.83;;
14526;SDS011;7350;51.208;4.238;2023-04-29T14:54:18;8.73;;;3.90;;
14526;SDS011;7350;51.208;4.238;2023-04-29T14:56:45;8.20;;;3.53;;
14526;SDS011;7350;51.208;4.238;2023-04-29T14:59:14;5.72;;;3.03;;
14526;SDS011;7350;51.208;4.238;2023-04-29T15:01:40;5.20;;;2.90;;
14526;SDS011;7350;51.208;4.238;2023-04-29T15:04:08;7.07;;;3.10;;
14526;SDS011;7350;51.208;4.238;2023-04-29T15:06:36;8.98;;;3.80;;
14526;SDS011;7350;51.208;4.238;2023-04-29T15:09:04;6.85;;;2.83;;